createdAt,value
2022-10-30T00:02:11.127Z,24.22
2022-10-30T00:04:41.872Z,24.20
2022-10-30T00:07:12.483Z,24.19
2022-10-30T00:09:43.087Z,24.18
2022-10-30T00:12:13.810Z,24.20
2022-10-30T00:14:44.430Z,24.18
2022-10-30T00:17:15.151Z,24.17
2022-10-30T00:19:45.901Z,24.17
2022-10-30T00:22:16.529Z,24.15
2022-10-30T00:24:47.194Z,24.14
2022-10-30T00:27:18.142Z,24.13
2022-10-30T00:29:48.987Z,24.13
2022-10-30T00:32:19.611Z,24.12
2022-10-30T00:34:50.200Z,24.10
2022-10-30T00:37:21.188Z,24.11
2022-10-30T00:39:51.845Z,24.12
2022-10-30T00:42:22.562Z,24.12
2022-10-30T00:44:54.018Z,24.11
2022-10-30T00:47:29.713Z,24.10
2022-10-30T00:50:06.247Z,24.11
2022-10-30T00:52:41.915Z,24.12
2022-10-30T00:55:16.943Z,24.12
2022-10-30T00:57:50.695Z,24.12
2022-10-30T01:00:24.028Z,24.12
2022-10-30T01:02:55.745Z,24.11
2022-10-30T01:05:28.954Z,24.11
2022-10-30T01:07:59.831Z,24.12
2022-10-30T01:10:31.382Z,24.13
2022-10-30T01:13:03.047Z,24.11
2022-10-30T01:15:37.588Z,24.09
2022-10-30T01:18:40.104Z,24.09
2022-10-30T01:21:32.858Z,24.05
2022-10-30T01:24:21.209Z,24.06
2022-10-30T01:27:00.341Z,24.06
2022-10-30T01:29:43.538Z,24.04
2022-10-30T01:32:29.042Z,24.03
2022-10-30T01:35:05.402Z,24.02
2022-10-30T01:37:43.302Z,24.01
2022-10-30T01:40:16.772Z,24.00
2022-10-30T01:42:53.364Z,24.00
2022-10-30T01:45:33.901Z,24.00
2022-10-30T01:48:29.778Z,24.00
2022-10-30T01:51:05.592Z,24.02
2022-10-30T01:53:49.633Z,24.00
2022-10-30T01:56:30.650Z,24.00
2022-10-30T01:59:09.983Z,24.00
2022-10-30T02:01:41.217Z,23.99
2022-10-30T02:04:14.454Z,23.99
2022-10-30T02:06:46.460Z,24.00
2022-10-30T02:09:19.308Z,23.99
2022-10-30T02:11:51.380Z,23.98
2022-10-30T02:14:25.955Z,23.98
2022-10-30T02:16:59.061Z,23.99
2022-10-30T02:19:29.770Z,24.00
2022-10-30T02:22:00.600Z,24.01
2022-10-30T02:24:31.884Z,23.98
2022-10-30T02:27:03.159Z,23.96
2022-10-30T02:29:33.847Z,23.94
2022-10-30T02:32:04.759Z,23.93
2022-10-30T02:34:35.424Z,23.95
2022-10-30T02:37:06.166Z,23.95
2022-10-30T02:39:36.829Z,23.93
2022-10-30T02:42:07.678Z,23.93
2022-10-30T02:44:38.315Z,23.93
2022-10-30T02:47:09.091Z,23.93
2022-10-30T02:49:39.752Z,23.93
2022-10-30T02:52:11.153Z,23.93
2022-10-30T02:54:41.778Z,23.93
2022-10-30T02:57:13.092Z,23.93
2022-10-30T02:59:43.698Z,23.93
2022-10-30T03:02:14.497Z,23.92
2022-10-30T03:04:45.202Z,23.90
2022-10-30T03:07:16.079Z,23.90
2022-10-30T03:09:46.943Z,23.91
2022-10-30T03:12:17.700Z,23.91
2022-10-30T03:14:48.360Z,23.90
2022-10-30T03:17:19.003Z,23.87
2022-10-30T03:19:49.631Z,23.83
2022-10-30T03:22:20.284Z,23.85
2022-10-30T03:24:50.949Z,23.85
2022-10-30T03:27:21.639Z,23.85
2022-10-30T03:29:52.380Z,23.83
2022-10-30T03:34:53.654Z,23.85
2022-10-30T03:37:24.289Z,23.81
2022-10-30T03:39:54.921Z,23.84
2022-10-30T03:42:25.856Z,23.83
2022-10-30T03:44:56.500Z,23.82
2022-10-30T03:47:27.124Z,23.82
2022-10-30T03:49:57.757Z,23.81
2022-10-30T03:52:29.898Z,23.80
2022-10-30T03:55:00.577Z,23.78
2022-10-30T03:57:31.222Z,23.78
2022-10-30T04:00:02.000Z,23.77
2022-10-30T04:02:32.648Z,23.76
2022-10-30T04:05:03.310Z,23.76
2022-10-30T04:07:33.959Z,23.77
2022-10-30T04:10:05.185Z,23.74
2022-10-30T04:12:38.420Z,23.78
2022-10-30T04:15:11.264Z,23.80
2022-10-30T04:17:49.091Z,23.79
2022-10-30T04:20:20.531Z,23.78
2022-10-30T04:22:56.501Z,23.77
2022-10-30T04:25:27.623Z,23.76
2022-10-30T04:27:58.421Z,23.77
2022-10-30T04:30:31.386Z,23.78
2022-10-30T04:33:03.001Z,23.78
2022-10-30T04:35:38.085Z,23.78
2022-10-30T04:38:10.719Z,23.78
2022-10-30T04:40:43.105Z,23.76
2022-10-30T04:43:15.054Z,23.75
2022-10-30T04:45:45.757Z,23.75
2022-10-30T04:48:18.730Z,23.75
2022-10-30T04:50:49.560Z,23.74
2022-10-30T04:53:21.207Z,23.74
2022-10-30T04:55:56.286Z,23.74
2022-10-30T04:58:26.993Z,23.73
2022-10-30T05:01:02.019Z,23.70
2022-10-30T05:03:34.452Z,23.70
2022-10-30T05:06:08.287Z,23.70
2022-10-30T05:08:38.889Z,23.70
2022-10-30T05:11:09.691Z,23.69
2022-10-30T05:13:40.363Z,23.69
2022-10-30T05:16:11.557Z,23.68
2022-10-30T05:18:42.124Z,23.69
2022-10-30T05:21:13.017Z,23.69
2022-10-30T05:23:43.603Z,23.69
2022-10-30T05:26:14.227Z,23.70
2022-10-30T05:28:45.060Z,23.70
2022-10-30T05:31:15.738Z,23.69
2022-10-30T05:33:46.434Z,23.69
2022-10-30T05:36:17.137Z,23.69
2022-10-30T05:38:47.790Z,23.68
2022-10-30T05:41:18.528Z,23.68
2022-10-30T05:43:49.164Z,23.66
2022-10-30T05:46:20.024Z,23.64
2022-10-30T05:48:50.759Z,23.65
2022-10-30T05:51:21.496Z,23.64
2022-10-30T05:53:52.534Z,23.63
2022-10-30T05:56:23.280Z,23.61
2022-10-30T05:58:54.532Z,23.59
2022-10-30T06:01:26.565Z,23.58
2022-10-30T06:03:58.566Z,23.55
2022-10-30T06:06:29.182Z,23.53
2022-10-30T06:09:00.346Z,23.55
2022-10-30T06:11:31.039Z,23.58
2022-10-30T06:14:01.721Z,23.60
2022-10-30T06:19:07.935Z,23.61
2022-10-30T06:21:38.703Z,23.60
2022-10-30T06:24:10.750Z,23.62
2022-10-30T06:26:41.655Z,23.62
2022-10-30T06:29:12.390Z,23.62
2022-10-30T06:31:43.654Z,23.62
2022-10-30T06:34:14.482Z,23.62
2022-10-30T06:36:45.245Z,23.61
2022-10-30T06:39:16.058Z,23.61
2022-10-30T06:41:46.799Z,23.62
2022-10-30T06:44:18.476Z,23.60
2022-10-30T06:46:49.199Z,23.59
2022-10-30T06:49:19.995Z,23.58
2022-10-30T06:51:51.904Z,23.58
2022-10-30T06:54:22.580Z,23.57
2022-10-30T06:56:54.308Z,23.58
2022-10-30T06:59:24.999Z,23.58
2022-10-30T07:02:00.029Z,23.58
2022-10-30T07:04:32.445Z,23.57
2022-10-30T07:07:03.270Z,23.59
2022-10-30T07:09:34.013Z,23.59
2022-10-30T07:12:07.079Z,23.61
2022-10-30T07:14:38.371Z,23.63
2022-10-30T07:17:09.048Z,23.66
2022-10-30T07:19:40.009Z,23.67
2022-10-30T07:22:10.996Z,23.67
2022-10-30T07:24:41.727Z,23.67
2022-10-30T07:27:12.463Z,23.69
2022-10-30T07:29:43.267Z,23.68
2022-10-30T07:32:15.548Z,23.67
2022-10-30T07:34:46.417Z,23.68
2022-10-30T07:37:17.098Z,23.69
2022-10-30T07:39:47.895Z,23.70
2022-10-30T07:42:18.516Z,23.69
2022-10-30T07:44:49.195Z,23.68
2022-10-30T07:47:20.311Z,23.68
2022-10-30T07:49:51.233Z,23.69
2022-10-30T07:52:21.991Z,23.68
2022-10-30T07:54:52.630Z,23.68
2022-10-30T07:57:23.489Z,23.65
2022-10-30T07:59:55.924Z,23.65
2022-10-30T08:02:29.098Z,23.64
2022-10-30T08:05:00.201Z,23.65
2022-10-30T08:07:34.221Z,23.64
2022-10-30T08:10:05.784Z,23.62
2022-10-30T08:12:38.379Z,23.63
2022-10-30T08:15:10.967Z,23.62
2022-10-30T08:17:46.359Z,23.62
2022-10-30T08:20:19.008Z,23.61
2022-10-30T08:22:51.135Z,23.61
2022-10-30T08:25:25.150Z,23.59
2022-10-30T08:27:58.046Z,23.58
2022-10-30T08:30:30.901Z,23.59
2022-10-30T08:33:03.225Z,23.56
2022-10-30T08:38:09.969Z,23.66
2022-10-30T08:40:40.797Z,23.70
2022-10-30T08:43:12.193Z,23.75
2022-10-30T08:45:43.619Z,23.80
2022-10-30T08:48:16.432Z,23.80
2022-10-30T08:50:47.547Z,23.81
2022-10-30T08:53:18.492Z,23.78
2022-10-30T08:55:49.331Z,23.77
2022-10-30T08:58:20.187Z,23.77
2022-10-30T09:00:50.825Z,23.77
2022-10-30T09:03:21.739Z,23.77
2022-10-30T09:05:52.590Z,23.79
2022-10-30T09:08:23.737Z,23.81
2022-10-30T09:10:59.131Z,23.84
2022-10-30T09:13:30.132Z,23.86
2022-10-30T09:16:04.304Z,23.79
2022-10-30T09:18:35.285Z,23.86
2022-10-30T09:21:06.607Z,23.88
2022-10-30T09:23:37.377Z,23.92
2022-10-30T09:26:08.523Z,23.95
2022-10-30T09:28:39.264Z,23.95
2022-10-30T09:31:10.277Z,23.96
2022-10-30T09:33:43.233Z,23.98
2022-10-30T09:36:16.819Z,23.98
2022-10-30T09:38:50.708Z,24.00
2022-10-30T09:41:35.875Z,24.01
2022-10-30T09:44:19.836Z,23.99
2022-10-30T09:47:00.728Z,23.98
2022-10-30T09:49:47.589Z,24.00
2022-10-30T09:52:27.672Z,24.02
2022-10-30T09:55:13.954Z,24.02
2022-10-30T09:57:51.743Z,24.04
2022-10-30T10:00:24.619Z,24.05
2022-10-30T10:03:13.996Z,24.09
2022-10-30T10:05:49.639Z,24.11
2022-10-30T10:08:23.755Z,24.12
2022-10-30T10:10:59.835Z,24.15
2022-10-30T10:13:38.458Z,24.18
2022-10-30T10:16:15.794Z,24.20
2022-10-30T10:18:49.600Z,24.23
2022-10-30T10:21:27.270Z,24.26
2022-10-30T10:24:00.889Z,24.30
2022-10-30T10:26:31.569Z,24.32
2022-10-30T10:29:17.952Z,24.32
2022-10-30T10:32:01.853Z,24.34
2022-10-30T10:34:44.959Z,24.37
2022-10-30T10:37:26.968Z,24.40
2022-10-30T10:40:16.652Z,24.42
2022-10-30T10:42:58.177Z,24.44
2022-10-30T10:45:36.998Z,24.45
2022-10-30T10:48:25.223Z,24.47
2022-10-30T10:51:02.913Z,24.49
2022-10-30T10:53:42.653Z,24.53
2022-10-30T10:56:14.226Z,24.54
2022-10-30T10:58:51.331Z,24.57
2022-10-30T11:01:31.246Z,24.59
2022-10-30T11:04:06.498Z,24.62
2022-10-30T11:06:41.181Z,24.59
2022-10-30T11:09:19.961Z,24.67
2022-10-30T11:11:52.238Z,24.71
2022-10-30T11:14:25.509Z,24.74
2022-10-30T11:17:12.556Z,24.76
2022-10-30T11:19:46.492Z,24.77
2022-10-30T11:22:26.955Z,24.78
2022-10-30T11:24:57.837Z,24.79
2022-10-30T11:27:30.927Z,24.80
2022-10-30T11:30:05.694Z,24.81
2022-10-30T11:32:37.303Z,24.81
2022-10-30T11:35:16.168Z,24.83
2022-10-30T11:37:49.439Z,24.86
2022-10-30T11:40:22.738Z,24.89
2022-10-30T11:42:59.656Z,24.92
2022-10-30T11:45:34.234Z,24.94
2022-10-30T11:48:13.571Z,24.97
2022-10-30T11:50:50.301Z,24.97
2022-10-30T11:53:30.501Z,25.02
2022-10-30T11:56:02.918Z,25.04
2022-10-30T11:58:37.403Z,25.09
2022-10-30T12:01:14.835Z,25.12
2022-10-30T12:03:45.729Z,25.13
2022-10-30T12:06:28.962Z,25.15
2022-10-30T12:09:12.969Z,25.18
2022-10-30T12:11:45.865Z,25.20
2022-10-30T12:14:22.836Z,25.23
2022-10-30T12:16:56.980Z,25.26
2022-10-30T12:19:28.647Z,25.30
2022-10-30T12:22:01.586Z,25.33
2022-10-30T12:24:36.989Z,25.34
2022-10-30T12:27:18.097Z,25.37
2022-10-30T12:30:09.831Z,25.37
2022-10-30T12:32:49.212Z,25.38
2022-10-30T12:35:37.302Z,25.39
2022-10-30T12:38:12.658Z,25.39
2022-10-30T12:40:47.942Z,25.41
2022-10-30T12:43:25.971Z,25.42
2022-10-30T12:46:03.572Z,25.42
2022-10-30T12:48:38.904Z,25.43
2022-10-30T12:51:22.955Z,25.43
2022-10-30T12:54:03.700Z,25.43
2022-10-30T12:56:39.625Z,25.43
2022-10-30T12:59:28.653Z,25.42
2022-10-30T13:02:05.821Z,25.41
2022-10-30T13:04:41.525Z,25.40
2022-10-30T13:07:19.825Z,25.44
2022-10-30T13:10:03.481Z,25.45
2022-10-30T13:12:38.019Z,25.45
2022-10-30T13:15:18.927Z,25.45
2022-10-30T13:17:50.360Z,25.44
2022-10-30T13:20:22.788Z,25.43
2022-10-30T13:22:57.553Z,25.43
2022-10-30T13:25:37.050Z,25.43
2022-10-30T13:28:14.341Z,25.43
2022-10-30T13:30:57.695Z,25.43
2022-10-30T13:33:34.749Z,25.44
2022-10-30T13:36:13.099Z,25.45
2022-10-30T13:38:54.089Z,25.45
2022-10-30T13:41:37.006Z,25.44
2022-10-30T13:44:23.565Z,25.42
2022-10-30T13:47:04.524Z,25.43
2022-10-30T13:49:53.772Z,25.43
2022-10-30T13:55:03.245Z,25.43
2022-10-30T13:57:42.102Z,25.42
2022-10-30T14:00:21.271Z,25.40
2022-10-30T14:03:13.754Z,25.38
2022-10-30T14:05:50.744Z,25.35
2022-10-30T14:11:03.872Z,25.28
2022-10-30T14:13:49.458Z,25.29
2022-10-30T14:16:38.279Z,25.28
2022-10-30T14:19:10.416Z,25.28
2022-10-30T14:21:51.996Z,25.28
2022-10-30T14:27:18.766Z,25.27
2022-10-30T14:29:54.382Z,25.29
2022-10-30T14:32:42.533Z,25.29
2022-10-30T14:35:37.550Z,25.29
2022-10-30T14:38:36.257Z,25.30
2022-10-30T14:41:31.637Z,25.31
2022-10-30T14:44:26.691Z,25.31
2022-10-30T14:47:26.043Z,25.31
2022-10-30T14:50:03.787Z,25.30
2022-10-30T14:52:44.437Z,25.32
2022-10-30T14:55:34.755Z,25.32
2022-10-30T14:58:26.071Z,25.32
2022-10-30T15:01:33.489Z,25.31
2022-10-30T15:04:23.614Z,25.31
2022-10-30T15:07:01.739Z,25.33
2022-10-30T15:09:46.268Z,25.34
2022-10-30T15:12:43.633Z,25.33
2022-10-30T15:15:18.640Z,25.33
2022-10-30T15:17:52.078Z,25.33
2022-10-30T15:20:25.588Z,25.34
2022-10-30T15:23:00.017Z,25.33
2022-10-30T15:25:35.697Z,25.35
2022-10-30T15:28:07.524Z,25.36
2022-10-30T15:30:40.644Z,25.37
2022-10-30T15:33:24.841Z,25.37
2022-10-30T15:35:55.653Z,25.37
2022-10-30T15:38:27.068Z,25.38
2022-10-30T15:41:03.535Z,25.38
2022-10-30T15:43:37.731Z,25.37
2022-10-30T15:46:13.166Z,25.38
2022-10-30T15:48:47.551Z,25.37
2022-10-30T15:51:20.108Z,25.36
2022-10-30T15:53:55.136Z,25.36
2022-10-30T15:56:30.526Z,25.35
2022-10-30T15:59:04.257Z,25.34
2022-10-30T16:01:39.227Z,25.34
2022-10-30T16:04:18.314Z,25.32
2022-10-30T16:06:55.158Z,25.29
2022-10-30T16:09:27.688Z,25.26
2022-10-30T16:12:01.984Z,25.21
2022-10-30T16:14:33.937Z,25.20
2022-10-30T16:17:05.631Z,25.17
2022-10-30T16:19:45.375Z,25.11
2022-10-30T16:22:20.220Z,25.14
2022-10-30T16:24:51.312Z,25.12
2022-10-30T16:27:23.814Z,25.10
2022-10-30T16:29:58.148Z,25.09
2022-10-30T16:32:32.222Z,25.05
2022-10-30T16:35:05.540Z,25.05
2022-10-30T16:37:39.412Z,25.02
2022-10-30T16:40:16.228Z,25.00
2022-10-30T16:42:54.328Z,24.99
2022-10-30T16:45:50.360Z,24.97
2022-10-30T16:48:28.091Z,24.95
2022-10-30T16:51:06.221Z,24.95
2022-10-30T16:53:37.310Z,24.93
2022-10-30T16:56:23.296Z,24.93
2022-10-30T16:58:56.292Z,24.92
2022-10-30T17:01:29.577Z,24.90
2022-10-30T17:04:01.446Z,24.89
2022-10-30T17:06:40.940Z,24.87
2022-10-30T17:09:25.516Z,24.85
2022-10-30T17:12:13.139Z,24.84
2022-10-30T17:14:55.500Z,24.84
2022-10-30T17:17:30.365Z,24.83
2022-10-30T17:20:28.287Z,24.82
2022-10-30T17:23:15.989Z,24.81
2022-10-30T17:25:49.060Z,24.79
2022-10-30T17:28:31.403Z,24.79
2022-10-30T17:31:23.328Z,24.80
2022-10-30T17:34:13.440Z,24.78
2022-10-30T17:36:45.137Z,24.77
2022-10-30T17:39:16.598Z,24.76
2022-10-30T17:41:47.635Z,24.75
2022-10-30T17:44:22.596Z,24.76
2022-10-30T17:46:54.744Z,24.76
2022-10-30T17:49:31.519Z,24.76
2022-10-30T17:52:02.559Z,24.79
2022-10-30T17:54:33.336Z,24.81
2022-10-30T17:57:04.381Z,24.83
2022-10-30T17:59:35.446Z,24.85
2022-10-30T18:02:12.287Z,24.87
2022-10-30T18:04:44.401Z,24.87
2022-10-30T18:07:16.624Z,24.88
2022-10-30T18:09:47.712Z,24.89
2022-10-30T18:12:20.088Z,24.91
2022-10-30T18:14:51.239Z,24.91
2022-10-30T18:17:23.451Z,24.93
2022-10-30T18:19:54.296Z,24.92
2022-10-30T18:22:25.856Z,24.94
2022-10-30T18:24:57.100Z,24.94
2022-10-30T18:27:28.048Z,24.94
2022-10-30T18:29:58.926Z,24.94
2022-10-30T18:32:29.654Z,24.94
2022-10-30T18:35:00.603Z,24.95
2022-10-30T18:37:31.605Z,24.96
2022-10-30T18:40:02.555Z,24.96
2022-10-30T18:42:33.293Z,24.97
2022-10-30T18:45:04.258Z,24.98
2022-10-30T18:47:35.200Z,24.99
2022-10-30T18:50:06.630Z,24.98
2022-10-30T18:52:38.082Z,24.97
2022-10-30T18:55:19.396Z,24.98
2022-10-30T18:57:51.115Z,24.98
2022-10-30T19:00:25.886Z,24.97
2022-10-30T19:02:58.394Z,24.96
2022-10-30T19:05:35.528Z,24.94
2022-10-30T19:08:07.070Z,24.92
2022-10-30T19:10:43.083Z,24.91
2022-10-30T19:13:19.768Z,24.90
2022-10-30T19:15:57.382Z,24.88
2022-10-30T19:18:32.890Z,24.88
2022-10-30T19:21:06.559Z,24.87
2022-10-30T19:23:40.265Z,24.87
2022-10-30T19:28:47.486Z,24.86
2022-10-30T19:31:20.250Z,24.86
2022-10-30T19:33:53.165Z,24.86
2022-10-30T19:36:34.018Z,24.86
2022-10-30T19:39:09.264Z,24.85
2022-10-30T19:41:41.421Z,24.86
2022-10-30T19:44:12.716Z,24.86
2022-10-30T19:46:43.469Z,24.86
2022-10-30T19:49:20.904Z,24.85
2022-10-30T19:51:52.004Z,24.85
2022-10-30T19:54:22.991Z,24.85
2022-10-30T19:56:53.830Z,24.85
2022-10-30T19:59:26.512Z,24.85
2022-10-30T20:01:57.520Z,24.86
2022-10-30T20:04:28.395Z,24.86
2022-10-30T20:07:02.396Z,24.86
2022-10-30T20:09:34.182Z,24.87
2022-10-30T20:12:06.116Z,24.85
2022-10-30T20:14:36.978Z,24.86
2022-10-30T20:17:08.017Z,24.85
2022-10-30T20:19:38.860Z,24.82
2022-10-30T20:22:11.388Z,24.85
2022-10-30T20:24:42.178Z,24.85
2022-10-30T20:27:13.459Z,24.87
2022-10-30T20:29:46.012Z,24.89
2022-10-30T20:32:16.874Z,24.89
2022-10-30T20:34:47.931Z,24.89
2022-10-30T20:37:18.887Z,24.90
2022-10-30T20:39:51.829Z,24.91
2022-10-30T20:42:25.006Z,24.91
2022-10-30T20:44:56.066Z,24.87
2022-10-30T20:47:26.982Z,24.83
2022-10-30T20:49:57.786Z,24.85
2022-10-30T20:52:28.691Z,24.82
2022-10-30T20:54:59.577Z,24.82
2022-10-30T20:57:30.756Z,24.82
2022-10-30T21:00:01.796Z,24.81
2022-10-30T21:02:32.971Z,24.83
2022-10-30T21:05:11.753Z,24.82
2022-10-30T21:07:54.467Z,24.82
2022-10-30T21:10:30.179Z,24.82
2022-10-30T21:13:05.339Z,24.81
2022-10-30T21:15:40.943Z,24.79
2022-10-30T21:18:13.186Z,24.77
2022-10-30T21:20:44.903Z,24.77
2022-10-30T21:23:15.925Z,24.76
2022-10-30T21:25:46.968Z,24.76
2022-10-30T21:28:17.987Z,24.75
2022-10-30T21:30:48.903Z,24.74
2022-10-30T21:33:20.172Z,24.75
2022-10-30T21:35:51.049Z,24.74
2022-10-30T21:38:22.094Z,24.74
2022-10-30T21:40:59.679Z,24.71
2022-10-30T21:43:30.626Z,24.72
2022-10-30T21:46:05.225Z,24.72
2022-10-30T21:48:35.991Z,24.74
2022-10-30T21:51:11.929Z,24.73
2022-10-30T21:53:42.893Z,24.72
2022-10-30T21:56:17.014Z,24.68
2022-10-30T21:58:48.166Z,24.69
2022-10-30T22:01:21.186Z,24.68
2022-10-30T22:03:52.184Z,24.67
2022-10-30T22:06:23.888Z,24.66
2022-10-30T22:08:56.443Z,24.65
2022-10-30T22:11:28.956Z,24.65
2022-10-30T22:14:01.262Z,24.64
2022-10-30T22:16:33.557Z,24.63
2022-10-30T22:19:04.796Z,24.63
2022-10-30T22:21:36.157Z,24.63
2022-10-30T22:24:07.804Z,24.63
2022-10-30T22:26:38.614Z,24.61
2022-10-30T22:29:09.686Z,24.60
2022-10-30T22:31:40.661Z,24.59
2022-10-30T22:34:11.591Z,24.59
2022-10-30T22:36:42.324Z,24.55
2022-10-30T22:39:15.208Z,24.57
2022-10-30T22:41:45.952Z,24.56
2022-10-30T22:44:19.000Z,24.51
2022-10-30T22:46:49.673Z,24.53
2022-10-30T22:49:20.311Z,24.52
2022-10-30T22:51:50.950Z,24.51
2022-10-30T22:54:21.686Z,24.50
2022-10-30T22:56:52.319Z,24.49
2022-10-30T22:59:23.467Z,24.48
2022-10-30T23:01:54.133Z,24.48
2022-10-30T23:04:26.728Z,24.48
2022-10-30T23:06:57.353Z,24.49
2022-10-30T23:09:28.063Z,24.49
2022-10-30T23:11:58.699Z,24.47
2022-10-30T23:14:29.384Z,24.46
2022-10-30T23:16:59.980Z,24.45
2022-10-30T23:19:31.602Z,24.43
2022-10-30T23:22:02.797Z,24.42
2022-10-30T23:24:33.913Z,24.40
2022-10-30T23:27:04.602Z,24.38
2022-10-30T23:29:35.239Z,24.39
2022-10-30T23:32:07.546Z,24.38
2022-10-30T23:34:38.384Z,24.38
2022-10-30T23:37:09.204Z,24.37
2022-10-30T23:39:39.884Z,24.36
2022-10-30T23:42:10.667Z,24.33
2022-10-30T23:44:41.340Z,24.32
2022-10-30T23:47:12.109Z,24.32
2022-10-30T23:49:42.834Z,24.33
2022-10-30T23:52:13.896Z,24.33
2022-10-30T23:54:44.623Z,24.31
2022-10-30T23:57:15.859Z,24.30
2022-10-30T23:59:47.424Z,24.30
